This is the latest recevied weather packets stored in our database for station/object SP2ARK-10. If no packets are shown the sender has not sent any weather packets the latest 10 day(s).
| Time | Temp. | Humidity | Pressure | Rain* | Wind** | Luminosity | Snow |
|---|---|---|---|---|---|---|---|
| 1777913465 | 26.11° C | 58% | 1016 hPa | - | - | - | - |
| 1777912565 | 26.67° C | 56% | 1015.9 hPa | - | - | - | - |
| 1777911664 | 27.22° C | 56% | 1015.8 hPa | - | - | - | - |
| 1777910764 | 27.22° C | 56% | 1015.9 hPa | - | - | - | - |
| 1777909862 | 27.22° C | 56% | 1015.9 hPa | - | - | - | - |
| 1777908961 | 27.22° C | 55% | 1016 hPa | - | - | - | - |
| 1777908061 | 28.33° C | 55% | 1015.9 hPa | - | - | - | - |
| 1777907160 | 27.78° C | 55% | 1016 hPa | - | - | - | - |
| 1777906260 | 27.78° C | 55% | 1016.1 hPa | - | - | - | - |
| 1777905359 | 28.33° C | 55% | 1016 hPa | - | - | - | - |
| 1777904458 | 27.78° C | 55% | 1016.1 hPa | - | - | - | - |
| 1777903557 | 27.78° C | 54% | 1016.2 hPa | - | - | - | - |
| 1777902657 | 27.78° C | 54% | 1016.2 hPa | - | - | - | - |
| 1777901756 | 27.78° C | 53% | 1016.2 hPa | - | - | - | - |
| 1777900855 | 27.22° C | 53% | 1016.3 hPa | - | - | - | - |
| 1777899954 | 27.22° C | 53% | 1016.5 hPa | - | - | - | - |
| 1777899053 | 27.22° C | 53% | 1016.5 hPa | - | - | - | - |
| 1777898153 | 26.67° C | 54% | 1016.7 hPa | - | - | - | - |
| 1777897252 | 26.67° C | 54% | 1016.6 hPa | - | - | - | - |
| 1777896351 | 26.11° C | 55% | 1016.7 hPa | - | - | - | - |
| 1777895450 | 26.11° C | 55% | 1016.9 hPa | - | - | - | - |
| 1777894549 | 25.56° C | 55% | 1017 hPa | - | - | - | - |
| 1777893648 | 25° C | 56% | 1017.2 hPa | - | - | - | - |
| 1777892748 | 25° C | 56% | 1017.2 hPa | - | - | - | - |
| 1777891847 | 24.44° C | 57% | 1017.3 hPa | - | - | - | - |
* Rain since midnight (hover to see other rain measurements)
** Current wind speed in m/s (hover to see current wind gust speed)